createdAt,value
2023-09-29T00:01:46.193Z,14.27
2023-09-29T00:04:13.396Z,16.23
2023-09-29T00:06:40.568Z,12.50
2023-09-29T00:09:07.949Z,13.90
2023-09-29T00:11:35.649Z,11.73
2023-09-29T00:14:05.423Z,14.18
2023-09-29T00:16:32.587Z,12.37
2023-09-29T00:18:59.743Z,15.02
2023-09-29T00:21:26.901Z,14.63
2023-09-29T00:23:54.003Z,13.77
2023-09-29T00:26:21.793Z,13.40
2023-09-29T00:28:49.284Z,14.20
2023-09-29T00:31:19.256Z,14.83
2023-09-29T00:33:46.386Z,14.97
2023-09-29T00:36:13.491Z,15.17
2023-09-29T00:38:41.062Z,13.90
2023-09-29T00:41:09.738Z,13.33
2023-09-29T00:43:37.054Z,13.27
2023-09-29T00:46:07.915Z,13.87
2023-09-29T00:48:39.389Z,12.97
2023-09-29T00:53:35.493Z,14.27
2023-09-29T00:56:03.639Z,14.03
2023-09-29T00:58:31.802Z,13.47
2023-09-29T01:00:59.974Z,15.17
2023-09-29T01:03:27.365Z,13.33
2023-09-29T01:05:55.366Z,13.87
2023-09-29T01:08:25.200Z,14.53
2023-09-29T01:10:56.460Z,13.37
2023-09-29T01:13:23.897Z,14.30
2023-09-29T01:15:51.204Z,14.07
2023-09-29T01:18:18.519Z,13.97
2023-09-29T01:20:45.845Z,13.73
2023-09-29T01:23:13.126Z,14.60
2023-09-29T01:25:41.395Z,14.23
2023-09-29T01:28:10.390Z,14.03
2023-09-29T01:30:38.557Z,15.20
2023-09-29T01:33:06.188Z,15.53
2023-09-29T01:35:34.100Z,13.97
2023-09-29T01:38:01.659Z,13.93
2023-09-29T01:40:30.549Z,14.37
2023-09-29T01:42:58.900Z,14.40
2023-09-29T01:45:27.807Z,13.30
2023-09-29T01:47:56.187Z,12.40
2023-09-29T01:50:24.405Z,13.93
2023-09-29T01:52:52.796Z,14.50
2023-09-29T01:55:22.058Z,15.03
2023-09-29T01:57:52.361Z,14.07
2023-09-29T02:00:20.896Z,15.17
2023-09-29T02:02:49.682Z,14.90
2023-09-29T02:05:17.991Z,15.23
2023-09-29T02:07:46.890Z,12.00
2023-09-29T02:10:20.090Z,12.50
2023-09-29T02:12:58.517Z,14.77
2023-09-29T02:15:28.065Z,13.53
2023-09-29T02:17:55.717Z,12.03
2023-09-29T02:20:27.104Z,12.27
2023-09-29T02:22:56.466Z,14.50
2023-09-29T02:25:30.807Z,15.50
2023-09-29T02:28:00.827Z,15.10
2023-09-29T02:30:30.113Z,13.67
2023-09-29T02:32:57.999Z,16.27
2023-09-29T02:35:25.910Z,15.07
2023-09-29T02:37:54.131Z,15.53
2023-09-29T02:40:23.529Z,14.43
2023-09-29T02:42:51.459Z,15.30
2023-09-29T02:45:18.628Z,15.13
2023-09-29T02:47:48.273Z,14.73
2023-09-29T02:50:16.349Z,15.47
2023-09-29T02:52:43.818Z,15.10
2023-09-29T02:55:16.457Z,15.30
2023-09-29T02:57:45.396Z,13.67
2023-09-29T03:00:19.959Z,15.20
2023-09-29T03:02:47.957Z,14.07
2023-09-29T03:05:16.948Z,14.80
2023-09-29T03:07:44.584Z,14.23
2023-09-29T03:10:17.024Z,14.70
2023-09-29T03:12:46.355Z,14.00
2023-09-29T03:15:17.997Z,14.30
2023-09-29T03:17:47.469Z,12.87
2023-09-29T03:20:16.332Z,13.80
2023-09-29T03:22:46.749Z,16.73
2023-09-29T03:25:18.527Z,14.03
2023-09-29T03:27:46.672Z,13.03
2023-09-29T03:30:14.931Z,14.37
2023-09-29T03:32:43.826Z,13.20
2023-09-29T03:35:11.519Z,13.73
2023-09-29T03:37:40.601Z,15.77
2023-09-29T03:40:10.659Z,15.67
2023-09-29T03:42:42.438Z,15.00
2023-09-29T03:45:13.277Z,15.63
2023-09-29T03:47:41.421Z,14.97
2023-09-29T03:50:12.294Z,15.77
2023-09-29T03:52:40.538Z,15.43
2023-09-29T03:55:10.794Z,16.17
2023-09-29T03:57:39.488Z,13.00
2023-09-29T04:00:15.096Z,13.53
2023-09-29T04:02:43.155Z,16.10
2023-09-29T04:05:11.743Z,12.20
2023-09-29T04:07:41.032Z,13.73
2023-09-29T04:10:13.868Z,14.20
2023-09-29T04:12:46.200Z,15.50
2023-09-29T04:15:13.890Z,13.17
2023-09-29T04:17:41.838Z,11.03
2023-09-29T04:20:10.261Z,12.87
2023-09-29T04:22:39.834Z,12.00
2023-09-29T04:25:11.517Z,11.87
2023-09-29T04:27:40.612Z,15.03
2023-09-29T04:30:10.256Z,15.27
2023-09-29T04:32:37.743Z,15.57
2023-09-29T04:35:09.521Z,15.93
2023-09-29T04:37:37.833Z,13.40
2023-09-29T04:40:05.889Z,15.30
2023-09-29T04:42:34.305Z,14.80
2023-09-29T04:45:04.765Z,15.10
2023-09-29T04:47:32.369Z,15.07
2023-09-29T04:49:59.897Z,12.97
2023-09-29T04:52:27.876Z,15.53
2023-09-29T04:54:57.597Z,14.50
2023-09-29T04:57:24.808Z,14.87
2023-09-29T04:59:52.115Z,15.13
2023-09-29T05:02:19.257Z,15.37
2023-09-29T05:04:46.445Z,15.80
2023-09-29T05:07:13.553Z,14.40
2023-09-29T05:09:41.150Z,15.20
2023-09-29T05:12:08.413Z,15.07
2023-09-29T05:14:35.716Z,15.33
2023-09-29T05:17:02.978Z,13.43
2023-09-29T05:19:30.168Z,15.37
2023-09-29T05:21:57.284Z,16.13
2023-09-29T05:24:24.434Z,14.43
2023-09-29T05:26:51.578Z,16.17
2023-09-29T05:29:18.710Z,17.47
2023-09-29T05:31:49.983Z,12.67
2023-09-29T05:34:17.889Z,16.23
2023-09-29T05:36:46.342Z,14.87
2023-09-29T05:39:13.973Z,16.47
2023-09-29T05:41:41.235Z,13.43
2023-09-29T05:44:09.730Z,13.17
2023-09-29T05:46:37.059Z,15.60
2023-09-29T05:49:04.257Z,13.07
2023-09-29T05:51:31.344Z,11.70
2023-09-29T05:53:59.780Z,13.40
2023-09-29T05:56:27.628Z,15.17
2023-09-29T05:58:54.883Z,14.90
2023-09-29T06:01:23.409Z,14.63
2023-09-29T06:03:51.428Z,14.60
2023-09-29T06:06:19.620Z,14.20
2023-09-29T06:08:55.121Z,14.50
2023-09-29T06:11:23.520Z,12.03
2023-09-29T06:13:51.068Z,15.20
2023-09-29T06:16:18.541Z,14.03
2023-09-29T06:18:46.510Z,14.50
2023-09-29T06:21:14.546Z,13.60
2023-09-29T06:23:42.505Z,13.50
2023-09-29T06:26:09.859Z,13.70
2023-09-29T06:28:39.563Z,12.77
2023-09-29T06:31:07.302Z,13.40
2023-09-29T06:33:34.731Z,13.45
2023-09-29T06:36:02.153Z,13.70
2023-09-29T06:38:30.837Z,14.23
2023-09-29T06:40:59.699Z,14.30
2023-09-29T06:43:26.995Z,14.00
2023-09-29T06:46:01.439Z,13.07
2023-09-29T06:48:30.280Z,13.20
2023-09-29T06:51:01.051Z,14.50
2023-09-29T06:53:30.049Z,13.87
2023-09-29T06:55:59.138Z,11.77
2023-09-29T06:58:26.756Z,13.82
2023-09-29T07:00:57.375Z,14.02
2023-09-29T07:03:34.463Z,13.32
2023-09-29T07:06:02.651Z,13.27
2023-09-29T07:08:30.330Z,13.25
2023-09-29T07:10:58.037Z,12.98
2023-09-29T07:13:25.302Z,12.82
2023-09-29T07:15:52.955Z,13.18
2023-09-29T07:18:20.237Z,13.07
2023-09-29T07:20:51.679Z,12.73
2023-09-29T07:23:23.802Z,12.18
2023-09-29T07:25:54.519Z,12.07
2023-09-29T07:28:24.205Z,13.05
2023-09-29T07:30:54.459Z,11.77
2023-09-29T07:33:21.969Z,10.20
2023-09-29T07:35:49.254Z,11.88
2023-09-29T07:38:19.467Z,11.50
2023-09-29T07:40:47.525Z,11.68
2023-09-29T07:43:14.886Z,11.65
2023-09-29T07:45:42.054Z,10.25
2023-09-29T07:48:09.263Z,12.40
2023-09-29T07:50:36.510Z,11.38
2023-09-29T07:53:06.166Z,10.45
2023-09-29T07:55:33.372Z,11.55
2023-09-29T07:58:00.529Z,10.50
2023-09-29T08:00:27.684Z,10.48
2023-09-29T08:02:55.229Z,11.32
2023-09-29T08:05:22.577Z,9.07
2023-09-29T08:07:52.931Z,10.73
2023-09-29T08:10:20.131Z,10.30
2023-09-29T08:12:47.357Z,9.35
2023-09-29T08:15:15.955Z,8.45
2023-09-29T08:17:44.881Z,8.95
2023-09-29T08:20:13.967Z,8.77
2023-09-29T08:22:43.091Z,9.40
2023-09-29T08:25:12.463Z,8.73
2023-09-29T08:27:40.279Z,7.95
2023-09-29T08:30:09.280Z,8.20
2023-09-29T08:32:38.876Z,8.27
2023-09-29T08:35:07.047Z,8.63
2023-09-29T08:37:34.456Z,7.53
2023-09-29T08:40:01.682Z,7.15
2023-09-29T08:42:38.220Z,7.22
2023-09-29T08:45:15.021Z,7.10
2023-09-29T08:47:42.945Z,6.32
2023-09-29T08:50:12.321Z,7.13
2023-09-29T08:52:46.131Z,6.85
2023-09-29T08:55:14.909Z,8.02
2023-09-29T08:57:46.192Z,9.00
2023-09-29T09:00:15.302Z,9.35
2023-09-29T09:02:44.971Z,8.43
2023-09-29T09:05:14.415Z,7.40
2023-09-29T09:07:43.210Z,7.32
2023-09-29T09:10:26.918Z,6.60
2023-09-29T09:13:00.926Z,6.75
2023-09-29T09:15:29.540Z,6.85
2023-09-29T09:17:57.929Z,7.35
2023-09-29T09:20:26.062Z,9.27
2023-09-29T09:23:04.341Z,9.88
2023-09-29T09:25:44.302Z,11.55
2023-09-29T09:28:23.397Z,9.05
2023-09-29T09:31:04.840Z,6.28
2023-09-29T09:33:32.607Z,7.85
2023-09-29T09:36:12.273Z,7.82
2023-09-29T09:38:40.423Z,8.35
2023-09-29T09:41:09.212Z,6.10
2023-09-29T09:43:36.645Z,5.88
2023-09-29T09:46:06.401Z,6.45
2023-09-29T09:49:11.796Z,6.55
2023-09-29T09:51:48.569Z,6.68
2023-09-29T09:54:29.463Z,8.82
2023-09-29T09:57:10.493Z,7.00
2023-09-29T09:59:38.665Z,7.07
2023-09-29T10:02:08.627Z,7.15
2023-09-29T10:04:39.677Z,6.40
2023-09-29T10:07:08.284Z,9.43
2023-09-29T10:09:47.669Z,6.05
2023-09-29T10:12:32.600Z,7.10
2023-09-29T10:15:00.911Z,7.10
2023-09-29T10:17:42.851Z,8.15
2023-09-29T10:20:27.968Z,10.07
2023-09-29T10:23:16.464Z,6.38
2023-09-29T10:26:00.292Z,5.30
2023-09-29T10:28:44.487Z,9.13
2023-09-29T10:31:18.535Z,6.10
2023-09-29T10:33:55.317Z,5.90
2023-09-29T10:36:31.312Z,5.35
2023-09-29T10:39:01.154Z,5.40
2023-09-29T10:41:36.349Z,6.15
2023-09-29T10:44:05.748Z,5.90
2023-09-29T10:46:34.714Z,5.20
2023-09-29T10:49:02.504Z,5.72
2023-09-29T10:51:32.689Z,4.90
2023-09-29T10:54:09.206Z,4.55
2023-09-29T10:56:38.912Z,5.50
2023-09-29T10:59:09.217Z,6.40
2023-09-29T11:01:37.016Z,4.32
2023-09-29T11:04:10.779Z,5.15
2023-09-29T11:06:48.076Z,4.95
2023-09-29T11:09:23.143Z,5.38
2023-09-29T11:11:50.577Z,4.72
2023-09-29T11:14:18.886Z,4.40
2023-09-29T11:16:58.500Z,4.43
2023-09-29T11:19:29.151Z,4.95
2023-09-29T11:21:56.538Z,4.20
2023-09-29T11:24:24.505Z,7.28
2023-09-29T11:26:56.591Z,4.15
2023-09-29T11:29:29.485Z,5.22
2023-09-29T11:31:56.923Z,5.03
2023-09-29T11:34:24.582Z,7.35
2023-09-29T11:36:53.085Z,7.15
2023-09-29T11:39:22.319Z,5.65
2023-09-29T11:41:50.400Z,4.40
2023-09-29T11:44:18.386Z,5.90
2023-09-29T11:46:46.965Z,5.10
2023-09-29T11:49:14.172Z,5.57
2023-09-29T11:51:41.535Z,5.07
2023-09-29T11:54:09.033Z,5.63
2023-09-29T11:56:36.718Z,5.28
2023-09-29T11:59:04.231Z,5.00
2023-09-29T12:01:31.700Z,6.10
2023-09-29T12:03:59.845Z,6.22
2023-09-29T12:06:27.996Z,5.65
2023-09-29T12:08:55.233Z,5.30
2023-09-29T12:11:22.627Z,7.50
2023-09-29T12:13:50.281Z,5.05
2023-09-29T12:16:17.763Z,5.90
2023-09-29T12:18:45.083Z,5.55
2023-09-29T12:21:13.877Z,5.18
2023-09-29T12:23:41.748Z,5.40
2023-09-29T12:26:10.207Z,5.90
2023-09-29T12:28:38.238Z,5.90
2023-09-29T12:31:18.331Z,7.10
2023-09-29T12:33:48.496Z,7.25
2023-09-29T12:36:16.074Z,6.38
2023-09-29T12:38:44.524Z,7.38
2023-09-29T12:41:14.817Z,5.80
2023-09-29T12:43:44.818Z,6.00
2023-09-29T12:46:12.056Z,9.23
2023-09-29T12:48:39.891Z,5.97
2023-09-29T12:51:07.193Z,5.78
2023-09-29T12:53:34.340Z,6.30
2023-09-29T12:56:02.644Z,6.00
2023-09-29T12:58:30.143Z,5.72
2023-09-29T13:00:57.793Z,5.70
2023-09-29T13:03:25.343Z,6.18
2023-09-29T13:06:01.558Z,60.28
2023-09-29T13:08:28.921Z,7.18
2023-09-29T13:10:56.776Z,6.10
2023-09-29T13:13:25.729Z,6.90
2023-09-29T13:15:53.697Z,5.70
2023-09-29T13:18:24.072Z,5.10
2023-09-29T13:20:51.350Z,5.75
2023-09-29T13:23:29.024Z,5.78
2023-09-29T13:25:56.101Z,5.55
2023-09-29T13:28:23.544Z,5.60
2023-09-29T13:30:54.694Z,6.07
2023-09-29T13:33:28.301Z,6.10
2023-09-29T13:35:58.242Z,6.85
2023-09-29T13:38:25.689Z,5.13
2023-09-29T13:40:56.338Z,5.93
2023-09-29T13:43:27.078Z,7.13
2023-09-29T13:45:54.359Z,5.63
2023-09-29T13:48:23.588Z,5.28
2023-09-29T13:50:53.996Z,4.90
2023-09-29T13:53:22.317Z,10.73
2023-09-29T13:55:51.397Z,7.05
2023-09-29T13:58:18.868Z,5.68
2023-09-29T14:00:51.407Z,8.65
2023-09-29T14:03:19.852Z,7.10
2023-09-29T14:05:47.576Z,5.18
2023-09-29T14:08:14.873Z,4.95
2023-09-29T14:10:42.148Z,5.18
2023-09-29T14:13:19.384Z,5.00
2023-09-29T14:15:46.742Z,5.32
2023-09-29T14:18:14.268Z,5.90
2023-09-29T14:20:41.533Z,6.00
2023-09-29T14:23:08.712Z,6.35
2023-09-29T14:25:36.453Z,6.80
2023-09-29T14:28:05.658Z,5.43
2023-09-29T14:30:33.263Z,5.15
2023-09-29T14:33:05.806Z,4.93
2023-09-29T14:35:46.502Z,4.90
2023-09-29T14:38:17.701Z,7.35
2023-09-29T14:40:45.208Z,5.43
2023-09-29T14:43:12.489Z,6.57
2023-09-29T14:45:39.869Z,5.80
2023-09-29T14:48:08.392Z,5.82
2023-09-29T14:50:40.601Z,4.95
2023-09-29T14:53:11.611Z,4.90
2023-09-29T14:55:41.795Z,5.75
2023-09-29T14:58:09.227Z,5.90
2023-09-29T15:00:41.199Z,4.85
2023-09-29T15:03:08.513Z,5.13
2023-09-29T15:05:36.664Z,5.47
2023-09-29T15:08:05.178Z,5.25
2023-09-29T15:10:32.303Z,6.57
2023-09-29T15:13:01.633Z,5.70
2023-09-29T15:15:29.355Z,5.63
2023-09-29T15:17:57.387Z,6.53
2023-09-29T15:20:24.694Z,6.70
2023-09-29T15:22:52.291Z,6.78
2023-09-29T15:25:19.721Z,5.30
2023-09-29T15:27:49.591Z,5.20
2023-09-29T15:30:16.816Z,5.43
2023-09-29T15:32:44.000Z,5.20
2023-09-29T15:35:12.855Z,6.70
2023-09-29T15:37:40.143Z,7.13
2023-09-29T15:40:08.435Z,6.00
2023-09-29T15:42:35.527Z,6.28
2023-09-29T15:45:03.667Z,5.75
2023-09-29T15:47:30.861Z,6.20
2023-09-29T15:49:58.186Z,5.50
2023-09-29T15:52:25.385Z,4.88
2023-09-29T15:54:52.746Z,5.60
2023-09-29T15:57:19.831Z,6.35
2023-09-29T15:59:47.510Z,8.38
2023-09-29T16:02:25.298Z,6.18
2023-09-29T16:04:54.776Z,6.40
2023-09-29T16:07:22.409Z,5.93
2023-09-29T16:09:49.663Z,6.38
2023-09-29T16:12:16.980Z,6.10
2023-09-29T16:14:44.155Z,6.90
2023-09-29T16:17:11.372Z,6.57
2023-09-29T16:19:38.881Z,5.80
2023-09-29T16:22:07.139Z,6.13
2023-09-29T16:24:34.354Z,6.60
2023-09-29T16:27:01.622Z,6.35
2023-09-29T16:29:30.402Z,6.13
2023-09-29T16:31:58.089Z,6.70
2023-09-29T16:34:25.295Z,6.28
2023-09-29T16:36:52.430Z,6.47
2023-09-29T16:39:19.716Z,7.13
2023-09-29T16:41:47.543Z,7.10
2023-09-29T16:44:14.775Z,6.53
2023-09-29T16:46:42.478Z,8.30
2023-09-29T16:49:09.631Z,7.40
2023-09-29T16:51:36.796Z,7.85
2023-09-29T16:54:04.119Z,7.32
2023-09-29T16:56:31.258Z,7.10
2023-09-29T16:58:58.479Z,7.93
2023-09-29T17:01:26.367Z,7.53
2023-09-29T17:03:53.855Z,8.57
2023-09-29T17:06:25.138Z,7.53
2023-09-29T17:08:52.323Z,7.50
2023-09-29T17:11:20.243Z,8.63
2023-09-29T17:13:48.573Z,7.35
2023-09-29T17:16:16.199Z,6.85
2023-09-29T17:18:44.175Z,7.53
2023-09-29T17:21:17.989Z,8.98
2023-09-29T17:23:46.438Z,6.38
2023-09-29T17:26:15.548Z,7.10
2023-09-29T17:28:42.685Z,6.45
2023-09-29T17:31:09.952Z,7.35
2023-09-29T17:33:37.157Z,6.65
2023-09-29T17:36:07.190Z,5.80
2023-09-29T17:38:39.508Z,7.28
2023-09-29T17:41:09.316Z,6.47
2023-09-29T17:43:36.445Z,6.78
2023-09-29T17:46:06.121Z,7.18
2023-09-29T17:48:42.160Z,7.03
2023-09-29T17:51:16.964Z,7.63
2023-09-29T17:53:46.258Z,7.50
2023-09-29T17:56:14.135Z,6.35
2023-09-29T17:58:42.200Z,8.40
2023-09-29T18:01:12.791Z,8.30
2023-09-29T18:03:42.221Z,7.65
2023-09-29T18:06:11.501Z,8.85
2023-09-29T18:08:38.810Z,6.22
2023-09-29T18:11:05.915Z,6.70
2023-09-29T18:13:34.864Z,7.05
2023-09-29T18:16:01.978Z,7.57
2023-09-29T18:18:29.513Z,7.32
2023-09-29T18:21:00.950Z,7.15
2023-09-29T18:23:30.870Z,7.50
2023-09-29T18:25:58.047Z,7.43
2023-09-29T18:28:25.621Z,6.70
2023-09-29T18:30:52.896Z,6.45
2023-09-29T18:33:20.123Z,7.80
2023-09-29T18:35:47.295Z,8.18
2023-09-29T18:38:14.421Z,9.00
2023-09-29T18:40:41.845Z,8.63
2023-09-29T18:43:09.278Z,6.90
2023-09-29T18:45:37.693Z,5.75
2023-09-29T18:48:05.355Z,7.78
2023-09-29T18:50:36.276Z,7.60
2023-09-29T18:53:03.611Z,9.35
2023-09-29T18:55:31.204Z,8.60
2023-09-29T18:57:58.481Z,8.57
2023-09-29T19:00:26.842Z,8.80
2023-09-29T19:02:55.235Z,8.90
2023-09-29T19:05:22.860Z,12.18
2023-09-29T19:07:50.136Z,9.07
2023-09-29T19:10:18.299Z,7.75
2023-09-29T19:12:45.540Z,8.82
2023-09-29T19:15:12.883Z,8.65
2023-09-29T19:17:40.279Z,8.98
2023-09-29T19:20:08.863Z,9.23
2023-09-29T19:22:38.685Z,8.63
2023-09-29T19:25:06.269Z,8.07
2023-09-29T19:27:33.426Z,8.15
2023-09-29T19:30:04.528Z,7.13
2023-09-29T19:32:31.901Z,9.00
2023-09-29T19:34:59.341Z,8.43
2023-09-29T19:37:27.610Z,7.28
2023-09-29T19:39:58.125Z,9.77
2023-09-29T19:42:25.368Z,10.57
2023-09-29T19:44:55.185Z,7.63
2023-09-29T19:47:22.598Z,7.72
2023-09-29T19:49:50.298Z,8.90
2023-09-29T19:52:18.860Z,6.75
2023-09-29T19:54:46.100Z,7.97
2023-09-29T19:57:13.356Z,7.85
2023-09-29T19:59:40.627Z,6.90
2023-09-29T20:02:07.806Z,6.47
2023-09-29T20:04:35.002Z,7.57
2023-09-29T20:07:02.171Z,6.80
2023-09-29T20:09:29.848Z,8.35
2023-09-29T20:11:57.719Z,7.45
2023-09-29T20:14:25.244Z,7.65
2023-09-29T20:16:52.974Z,6.65
2023-09-29T20:19:20.492Z,7.03
2023-09-29T20:21:47.656Z,7.32
2023-09-29T20:24:14.885Z,6.20
2023-09-29T20:26:42.151Z,6.65
2023-09-29T20:29:09.890Z,5.80
2023-09-29T20:31:37.175Z,4.90
2023-09-29T20:34:05.543Z,5.03
2023-09-29T20:36:32.812Z,5.30
2023-09-29T20:39:06.101Z,5.30
2023-09-29T20:41:33.801Z,5.00
2023-09-29T20:44:01.327Z,5.70
2023-09-29T20:46:28.541Z,5.00
2023-09-29T20:48:55.836Z,5.40
2023-09-29T20:51:23.112Z,4.78
2023-09-29T20:53:50.264Z,4.50
2023-09-29T20:56:19.303Z,4.70
2023-09-29T20:58:46.499Z,4.32
2023-09-29T21:01:13.703Z,4.70
2023-09-29T21:03:40.981Z,4.40
2023-09-29T21:06:08.319Z,5.03
2023-09-29T21:08:35.718Z,5.35
2023-09-29T21:11:03.096Z,5.07
2023-09-29T21:13:30.409Z,5.38
2023-09-29T21:15:57.638Z,5.13
2023-09-29T21:18:24.970Z,4.80
2023-09-29T21:20:56.860Z,4.88
2023-09-29T21:23:23.976Z,5.05
2023-09-29T21:25:51.259Z,4.80
2023-09-29T21:28:18.686Z,4.50
2023-09-29T21:30:46.171Z,4.50
2023-09-29T21:33:13.643Z,4.30
2023-09-29T21:35:41.007Z,4.47
2023-09-29T21:38:08.256Z,4.40
2023-09-29T21:40:35.498Z,3.88
2023-09-29T21:43:02.813Z,4.22
2023-09-29T21:45:30.223Z,4.50
2023-09-29T21:47:57.525Z,3.58
2023-09-29T21:50:24.831Z,4.00
2023-09-29T21:52:51.929Z,3.70
2023-09-29T21:55:19.082Z,4.00
2023-09-29T21:57:46.166Z,3.67
2023-09-29T22:00:18.870Z,3.28
2023-09-29T22:02:47.123Z,3.47
2023-09-29T22:05:21.098Z,3.20
2023-09-29T22:07:50.017Z,3.45
2023-09-29T22:10:17.289Z,3.35
2023-09-29T22:12:46.433Z,3.63
2023-09-29T22:15:16.489Z,3.30
2023-09-29T22:17:44.961Z,3.67
2023-09-29T22:20:13.199Z,3.63
2023-09-29T22:22:40.325Z,3.75
2023-09-29T22:25:09.164Z,3.63
2023-09-29T22:27:39.001Z,3.53
2023-09-29T22:30:07.338Z,4.18
2023-09-29T22:32:34.649Z,4.10
2023-09-29T22:35:01.929Z,2.97
2023-09-29T22:37:29.298Z,3.97
2023-09-29T22:39:56.817Z,3.67
2023-09-29T22:42:26.187Z,3.65
2023-09-29T22:44:54.662Z,3.38
2023-09-29T22:47:21.793Z,3.20
2023-09-29T22:49:49.485Z,2.67
2023-09-29T22:52:16.659Z,2.42
2023-09-29T22:54:45.062Z,2.33
2023-09-29T22:57:12.339Z,1.90
2023-09-29T22:59:40.004Z,1.80
2023-09-29T23:02:07.181Z,1.58
2023-09-29T23:04:34.597Z,0.90
2023-09-29T23:07:02.791Z,1.10
2023-09-29T23:09:30.013Z,1.30
2023-09-29T23:11:59.161Z,1.00
2023-09-29T23:14:27.485Z,0.90
2023-09-29T23:16:55.338Z,0.65
2023-09-29T23:19:22.661Z,0.65
2023-09-29T23:21:51.658Z,0.37
2023-09-29T23:24:20.583Z,0.30
2023-09-29T23:26:49.315Z,0.50
2023-09-29T23:29:16.780Z,0.32
2023-09-29T23:31:44.580Z,0.50
2023-09-29T23:34:13.516Z,0.73
2023-09-29T23:36:40.734Z,0.80
2023-09-29T23:39:11.826Z,0.53
2023-09-29T23:41:41.006Z,0.60
2023-09-29T23:44:08.969Z,0.60
2023-09-29T23:46:38.539Z,0.37
2023-09-29T23:49:09.031Z,0.50
2023-09-29T23:51:36.517Z,0.40
2023-09-29T23:54:04.805Z,0.50
2023-09-29T23:56:32.199Z,0.50
2023-09-29T23:59:02.004Z,0.30
